createdAt,value
2018-02-18T00:00:06.944Z,81.10
2018-02-18T00:02:34.399Z,81.10
2018-02-18T00:05:01.831Z,81.10
2018-02-18T00:07:29.301Z,81.30
2018-02-18T00:09:57.496Z,81.50
2018-02-18T00:12:24.940Z,81.50
2018-02-18T00:14:56.345Z,81.50
2018-02-18T00:17:24.544Z,81.40
2018-02-18T00:19:51.985Z,82.10
2018-02-18T00:22:20.196Z,81.40
2018-02-18T00:24:47.623Z,81.40
2018-02-18T00:27:15.836Z,81.70
2018-02-18T00:29:43.298Z,81.50
2018-02-18T00:32:10.720Z,81.70
2018-02-18T00:34:38.156Z,81.70
2018-02-18T00:37:06.373Z,81.80
2018-02-18T00:39:33.796Z,81.80
2018-02-18T00:42:01.988Z,81.90
2018-02-18T00:44:29.476Z,81.90
2018-02-18T00:46:56.905Z,81.90
2018-02-18T00:49:24.388Z,81.80
2018-02-18T00:51:51.830Z,81.80
2018-02-18T00:54:19.300Z,81.90
2018-02-18T00:56:46.729Z,82.00
2018-02-18T00:59:14.174Z,82.10
2018-02-18T01:01:42.365Z,82.20
2018-02-18T01:04:09.797Z,82.10
2018-02-18T01:06:38.014Z,82.20
2018-02-18T01:09:05.452Z,82.20
2018-02-18T01:11:32.929Z,82.20
2018-02-18T01:14:00.398Z,82.20
2018-02-18T01:16:27.848Z,82.20
2018-02-18T01:18:55.304Z,82.20
2018-02-18T01:21:22.764Z,82.20
2018-02-18T01:23:50.209Z,82.20
2018-02-18T01:26:17.636Z,82.20
2018-02-18T01:28:45.101Z,82.20
2018-02-18T01:31:12.589Z,82.30
2018-02-18T01:33:40.042Z,82.40
2018-02-18T01:36:07.495Z,82.40
2018-02-18T01:38:34.952Z,82.50
2018-02-18T01:41:02.380Z,82.60
2018-02-18T01:43:30.693Z,82.60
2018-02-18T01:45:58.120Z,82.60
2018-02-18T01:48:25.552Z,82.60
2018-02-18T01:50:53.770Z,83.20
2018-02-18T01:53:21.200Z,82.60
2018-02-18T01:55:49.401Z,82.70
2018-02-18T01:58:16.833Z,82.70
2018-02-18T02:00:44.325Z,82.70
2018-02-18T02:03:11.756Z,82.70
2018-02-18T02:05:39.193Z,82.80
2018-02-18T02:08:07.436Z,82.70
2018-02-18T02:10:34.984Z,82.70
2018-02-18T02:13:02.532Z,82.70
2018-02-18T02:15:29.973Z,82.80
2018-02-18T02:17:57.400Z,82.70
2018-02-18T02:20:25.623Z,82.90
2018-02-18T02:22:53.042Z,82.90
2018-02-18T02:25:21.259Z,82.90
2018-02-18T02:27:48.719Z,82.90
2018-02-18T02:30:16.170Z,82.80
2018-02-18T02:32:43.641Z,82.90
2018-02-18T02:35:11.082Z,82.90
2018-02-18T02:37:38.525Z,82.90
2018-02-18T02:40:05.948Z,82.90
2018-02-18T02:42:34.218Z,82.90
2018-02-18T02:45:01.630Z,82.90
2018-02-18T02:47:29.088Z,82.90
2018-02-18T02:49:56.545Z,82.90
2018-02-18T02:52:23.981Z,82.80
2018-02-18T02:54:51.412Z,82.80
2018-02-18T02:57:19.624Z,82.80
2018-02-18T02:59:47.098Z,82.80
2018-02-18T03:02:14.557Z,82.90
2018-02-18T03:04:41.995Z,82.90
2018-02-18T03:07:09.420Z,83.00
2018-02-18T03:09:37.628Z,83.00
2018-02-18T03:12:05.100Z,83.00
2018-02-18T03:14:32.550Z,83.00
2018-02-18T03:17:00.016Z,83.00
2018-02-18T03:19:27.570Z,83.10
2018-02-18T03:21:55.028Z,83.10
2018-02-18T03:24:22.460Z,83.00
2018-02-18T03:26:49.892Z,83.00
2018-02-18T03:29:18.117Z,83.10
2018-02-18T03:31:45.581Z,83.10
2018-02-18T03:34:13.129Z,83.10
2018-02-18T03:36:40.560Z,83.10
2018-02-18T03:39:07.986Z,83.10
2018-02-18T03:41:36.224Z,83.20
2018-02-18T03:44:03.677Z,83.20
2018-02-18T03:46:31.119Z,83.10
2018-02-18T03:48:58.561Z,83.20
2018-02-18T03:51:25.997Z,83.20
2018-02-18T03:53:54.200Z,83.30
2018-02-18T03:56:21.667Z,83.30
2018-02-18T03:58:49.092Z,83.40
2018-02-18T04:01:17.304Z,83.40
2018-02-18T04:03:44.769Z,83.40
2018-02-18T04:06:12.221Z,83.30
2018-02-18T04:08:39.658Z,83.40
2018-02-18T04:11:07.101Z,83.40
2018-02-18T04:13:34.556Z,83.30
2018-02-18T04:16:02.755Z,83.10
2018-02-18T04:18:30.205Z,83.10
2018-02-18T04:20:57.628Z,83.20
2018-02-18T04:23:25.852Z,83.30
2018-02-18T04:25:53.285Z,83.20
2018-02-18T04:28:20.724Z,83.20
2018-02-18T04:30:48.918Z,83.30
2018-02-18T04:33:16.373Z,83.20
2018-02-18T04:35:43.807Z,83.30
2018-02-18T04:38:12.028Z,83.30
2018-02-18T04:40:39.481Z,83.20
2018-02-18T04:43:06.940Z,83.30
2018-02-18T04:45:34.377Z,83.20
2018-02-18T04:48:01.866Z,83.10
2018-02-18T04:50:29.316Z,83.10
2018-02-18T04:52:56.776Z,83.10
2018-02-18T04:55:24.217Z,83.20
2018-02-18T04:57:51.702Z,83.10
2018-02-18T05:00:19.243Z,83.10
2018-02-18T05:02:46.708Z,83.10
2018-02-18T05:05:14.155Z,83.90
2018-02-18T05:07:41.572Z,83.20
2018-02-18T05:10:09.792Z,83.30
2018-02-18T05:12:37.228Z,83.20
2018-02-18T05:15:04.707Z,83.20
2018-02-18T05:17:32.168Z,83.20
2018-02-18T05:19:59.596Z,83.20
2018-02-18T05:22:27.035Z,83.20
2018-02-18T05:24:55.242Z,83.20
2018-02-18T05:27:22.676Z,83.10
2018-02-18T05:29:50.116Z,83.10
2018-02-18T05:32:18.316Z,83.20
2018-02-18T05:34:45.798Z,83.00
2018-02-18T05:37:13.239Z,83.10
2018-02-18T05:39:40.716Z,83.10
2018-02-18T05:42:08.172Z,83.00
2018-02-18T05:44:35.596Z,83.70
2018-02-18T05:47:03.098Z,83.00
2018-02-18T05:49:30.530Z,82.90
2018-02-18T05:51:58.000Z,82.90
2018-02-18T05:54:25.432Z,82.90
2018-02-18T05:56:52.916Z,82.90
2018-02-18T05:59:20.348Z,82.90
2018-02-18T06:01:47.804Z,82.90
2018-02-18T06:04:15.234Z,82.90
2018-02-18T06:06:43.443Z,82.80
2018-02-18T06:09:10.885Z,82.80
2018-02-18T06:11:38.371Z,82.80
2018-02-18T06:14:05.808Z,82.80
2018-02-18T06:16:33.284Z,83.00
2018-02-18T06:19:00.717Z,83.00
2018-02-18T06:21:28.149Z,82.90
2018-02-18T06:23:56.365Z,82.90
2018-02-18T06:26:23.800Z,82.90
2018-02-18T06:28:51.293Z,82.90
2018-02-18T06:31:18.748Z,82.90
2018-02-18T06:33:46.185Z,82.90
2018-02-18T06:36:13.616Z,82.80
2018-02-18T06:38:41.836Z,82.90
2018-02-18T06:41:09.264Z,82.90
2018-02-18T06:43:36.704Z,82.80
2018-02-18T06:46:04.932Z,82.80
2018-02-18T06:48:32.419Z,82.80
2018-02-18T06:50:59.836Z,82.80
2018-02-18T06:53:27.284Z,82.80
2018-02-18T06:55:54.807Z,82.90
2018-02-18T06:58:22.208Z,82.90
2018-02-18T07:00:49.658Z,82.90
2018-02-18T07:03:17.124Z,82.90
2018-02-18T07:05:44.552Z,82.80
2018-02-18T07:08:12.064Z,82.80
2018-02-18T07:10:39.461Z,82.80
2018-02-18T07:13:06.896Z,82.80
2018-02-18T07:15:34.333Z,82.80
2018-02-18T07:18:01.761Z,82.90
2018-02-18T07:20:29.229Z,82.90
2018-02-18T07:22:56.798Z,82.90
2018-02-18T07:25:24.240Z,82.80
2018-02-18T07:27:51.699Z,82.80
2018-02-18T07:30:19.318Z,82.90
2018-02-18T07:32:47.540Z,82.90
2018-02-18T07:35:14.977Z,82.90
2018-02-18T07:37:42.416Z,82.80
2018-02-18T07:40:09.856Z,82.80
2018-02-18T07:42:38.052Z,82.80
2018-02-18T07:45:05.489Z,82.80
2018-02-18T07:47:33.705Z,82.80
2018-02-18T07:50:01.176Z,82.70
2018-02-18T07:52:28.611Z,82.80
2018-02-18T07:54:56.078Z,82.70
2018-02-18T07:57:23.536Z,82.80
2018-02-18T07:59:50.992Z,82.80
2018-02-18T08:02:18.448Z,82.80
2018-02-18T08:04:45.884Z,82.80
2018-02-18T08:07:13.365Z,82.80
2018-02-18T08:09:40.797Z,82.80
2018-02-18T08:12:08.300Z,82.80
2018-02-18T08:14:35.844Z,82.70
2018-02-18T08:17:03.304Z,82.70
2018-02-18T08:19:30.756Z,82.80
2018-02-18T08:21:58.313Z,82.90
2018-02-18T08:24:25.757Z,82.90
2018-02-18T08:26:53.219Z,83.00
2018-02-18T08:29:20.680Z,83.10
2018-02-18T08:31:48.109Z,83.10
2018-02-18T08:41:02.521Z,82.90
2018-02-18T08:43:29.950Z,82.90
2018-02-18T08:45:58.173Z,83.30
2018-02-18T08:48:25.646Z,83.20
2018-02-18T08:50:53.084Z,83.30
2018-02-18T08:53:20.517Z,83.40
2018-02-18T08:55:47.969Z,83.50
2018-02-18T08:58:15.410Z,83.60
2018-02-18T09:00:43.601Z,83.60
2018-02-18T09:03:11.074Z,83.60
2018-02-18T09:05:39.234Z,83.60
2018-02-18T09:08:06.713Z,83.60
2018-02-18T09:10:34.230Z,83.60
2018-02-18T09:13:01.736Z,83.50
2018-02-18T09:15:29.171Z,83.50
2018-02-18T09:17:56.612Z,83.40
2018-02-18T09:20:24.173Z,83.20
2018-02-18T09:22:52.369Z,83.10
2018-02-18T09:25:19.812Z,83.10
2018-02-18T09:27:47.244Z,83.60
2018-02-18T09:30:15.441Z,83.10
2018-02-18T09:32:42.885Z,82.80
2018-02-18T09:35:11.081Z,82.70
2018-02-18T09:37:38.511Z,82.70
2018-02-18T09:40:06.763Z,82.50
2018-02-18T09:42:34.232Z,82.50
2018-02-18T09:45:01.757Z,82.50
2018-02-18T09:47:29.308Z,82.30
2018-02-18T09:49:56.737Z,82.20
2018-02-18T09:52:24.221Z,82.30
2018-02-18T09:54:51.667Z,82.20
2018-02-18T09:57:19.094Z,82.10
2018-02-18T09:59:47.288Z,82.10
2018-02-18T10:02:14.747Z,82.10
2018-02-18T10:04:42.226Z,82.00
2018-02-18T10:07:09.685Z,82.00
2018-02-18T10:09:37.133Z,81.90
2018-02-18T10:12:04.605Z,81.90
2018-02-18T10:14:32.033Z,81.80
2018-02-18T10:16:59.472Z,81.50
2018-02-18T10:19:27.665Z,81.40
2018-02-18T10:21:55.140Z,81.40
2018-02-18T10:24:22.592Z,81.20
2018-02-18T10:26:50.021Z,81.10
2018-02-18T10:29:18.221Z,80.70
2018-02-18T10:31:45.661Z,80.70
2018-02-18T10:34:13.164Z,80.60
2018-02-18T10:36:40.594Z,80.40
2018-02-18T10:39:08.033Z,80.30
2018-02-18T10:41:35.464Z,80.10
2018-02-18T10:44:02.888Z,80.00
2018-02-18T10:46:30.332Z,79.80
2018-02-18T10:48:57.765Z,79.90
2018-02-18T10:51:25.241Z,79.80
2018-02-18T10:53:52.696Z,79.70
2018-02-18T10:56:20.954Z,79.60
2018-02-18T10:58:48.428Z,79.50
2018-02-18T11:01:15.877Z,79.40
2018-02-18T11:03:43.338Z,79.40
2018-02-18T11:06:10.773Z,79.10
2018-02-18T11:08:38.988Z,79.20
2018-02-18T11:11:06.427Z,79.10
2018-02-18T11:13:33.853Z,79.10
2018-02-18T11:16:02.065Z,78.70
2018-02-18T11:18:29.561Z,78.60
2018-02-18T11:20:57.000Z,78.20
2018-02-18T11:23:24.482Z,78.00
2018-02-18T11:25:51.873Z,77.90
2018-02-18T11:28:19.361Z,77.80
2018-02-18T11:30:46.832Z,77.80
2018-02-18T11:33:14.368Z,77.80
2018-02-18T11:35:41.805Z,77.80
2018-02-18T11:38:09.240Z,77.80
2018-02-18T11:40:37.465Z,77.70
2018-02-18T11:43:04.913Z,77.70
2018-02-18T11:45:32.348Z,77.60
2018-02-18T11:47:59.789Z,77.50
2018-02-18T11:50:27.988Z,77.50
2018-02-18T11:52:55.408Z,77.50
2018-02-18T11:55:23.639Z,77.20
2018-02-18T11:57:51.085Z,77.20
2018-02-18T12:00:18.528Z,77.20
2018-02-18T12:02:46.008Z,77.20
2018-02-18T12:05:13.430Z,77.10
2018-02-18T12:07:40.881Z,77.00
2018-02-18T12:10:09.077Z,76.80
2018-02-18T12:12:36.556Z,76.80
2018-02-18T12:15:03.988Z,76.80
2018-02-18T12:17:31.465Z,76.90
2018-02-18T12:19:58.920Z,76.70
2018-02-18T12:22:26.357Z,76.50
2018-02-18T12:24:53.802Z,76.40
2018-02-18T12:27:22.053Z,76.10
2018-02-18T12:29:50.289Z,76.00
2018-02-18T12:32:17.720Z,76.00
2018-02-18T12:34:45.144Z,75.90
2018-02-18T12:37:12.660Z,75.90
2018-02-18T12:39:40.121Z,76.00
2018-02-18T12:42:07.566Z,76.00
2018-02-18T12:44:35.341Z,76.10
2018-02-18T12:47:03.481Z,76.20
2018-02-18T12:49:30.922Z,76.10
2018-02-18T12:51:59.167Z,76.00
2018-02-18T12:54:26.696Z,76.00
2018-02-18T12:56:54.187Z,76.00
2018-02-18T12:59:21.610Z,76.10
2018-02-18T13:01:49.045Z,76.10
2018-02-18T13:04:16.544Z,76.00
2018-02-18T13:06:44.096Z,76.00
2018-02-18T13:09:11.540Z,76.00
2018-02-18T13:11:38.981Z,76.10
2018-02-18T13:14:06.415Z,76.00
2018-02-18T13:16:34.679Z,76.10
2018-02-18T13:19:02.877Z,75.60
2018-02-18T13:21:31.112Z,76.00
2018-02-18T13:23:58.560Z,75.90
2018-02-18T13:26:25.991Z,76.00
2018-02-18T13:28:53.429Z,76.00
2018-02-18T13:31:20.869Z,75.90
2018-02-18T13:33:49.084Z,75.80
2018-02-18T13:36:16.640Z,75.80
2018-02-18T13:38:44.060Z,75.60
2018-02-18T13:41:12.277Z,75.30
2018-02-18T13:43:39.727Z,75.20
2018-02-18T13:46:07.155Z,75.00
2018-02-18T13:48:35.345Z,74.80
2018-02-18T13:51:02.824Z,74.80
2018-02-18T13:53:30.253Z,74.70
2018-02-18T13:55:57.737Z,74.70
2018-02-18T13:58:25.206Z,74.50
2018-02-18T14:00:52.632Z,74.30
2018-02-18T14:03:20.097Z,74.10
2018-02-18T14:05:47.564Z,74.00
2018-02-18T14:08:15.118Z,73.80
2018-02-18T14:10:42.554Z,73.60
2018-02-18T14:13:10.048Z,73.50
2018-02-18T14:15:37.480Z,73.30
2018-02-18T14:18:04.918Z,73.00
2018-02-18T14:20:33.157Z,72.60
2018-02-18T14:23:00.584Z,72.60
2018-02-18T14:25:28.017Z,72.40
2018-02-18T14:27:55.452Z,72.30
2018-02-18T14:30:23.690Z,72.30
2018-02-18T14:32:51.132Z,72.20
2018-02-18T14:35:18.574Z,72.10
2018-02-18T14:37:46.048Z,71.80
2018-02-18T14:40:13.481Z,71.60
2018-02-18T14:42:52.745Z,71.50
2018-02-18T14:45:32.373Z,71.40
2018-02-18T14:48:11.765Z,71.40
2018-02-18T14:50:51.952Z,71.20
2018-02-18T14:53:31.412Z,71.20
2018-02-18T14:56:08.444Z,71.20
2018-02-18T14:58:36.651Z,71.50
2018-02-18T15:01:04.124Z,71.30
2018-02-18T15:03:31.554Z,71.10
2018-02-18T15:05:59.045Z,70.90
2018-02-18T15:08:26.472Z,70.70
2018-02-18T15:10:53.900Z,71.50
2018-02-18T15:13:22.147Z,71.70
2018-02-18T15:15:49.685Z,71.00
2018-02-18T15:18:17.123Z,70.70
2018-02-18T15:20:44.596Z,70.50
2018-02-18T15:23:12.041Z,70.40
2018-02-18T15:25:39.583Z,70.30
2018-02-18T15:28:07.792Z,70.00
2018-02-18T15:30:35.232Z,70.00
2018-02-18T15:33:02.660Z,69.80
2018-02-18T15:35:30.880Z,69.90
2018-02-18T15:37:58.379Z,69.80
2018-02-18T15:40:25.800Z,69.70
2018-02-18T15:42:53.348Z,69.50
2018-02-18T15:45:20.822Z,69.60
2018-02-18T15:47:48.262Z,69.90
2018-02-18T15:50:15.740Z,69.60
2018-02-18T15:52:43.174Z,69.60
2018-02-18T15:55:10.637Z,69.70
2018-02-18T15:57:38.076Z,69.80
2018-02-18T16:00:05.504Z,69.60
2018-02-18T16:02:33.728Z,69.40
2018-02-18T16:05:01.181Z,70.10
2018-02-18T16:07:28.649Z,69.30
2018-02-18T16:09:56.094Z,69.30
2018-02-18T16:12:23.533Z,69.50
2018-02-18T16:14:51.006Z,69.70
2018-02-18T16:17:19.162Z,70.10
2018-02-18T16:19:46.652Z,70.10
2018-02-18T16:22:14.095Z,70.30
2018-02-18T16:24:41.540Z,70.60
2018-02-18T16:27:08.976Z,71.00
2018-02-18T16:29:37.173Z,71.60
2018-02-18T16:32:04.600Z,71.50
2018-02-18T16:34:32.817Z,72.00
2018-02-18T16:37:00.303Z,72.00
2018-02-18T16:39:27.684Z,72.20
2018-02-18T16:41:56.624Z,72.80
2018-02-18T16:44:24.057Z,72.80
2018-02-18T16:46:51.540Z,72.90
2018-02-18T16:49:18.985Z,73.10
2018-02-18T16:51:46.457Z,73.30
2018-02-18T16:54:13.893Z,73.60
2018-02-18T16:56:41.333Z,73.90
2018-02-18T16:59:09.549Z,74.30
2018-02-18T17:01:36.981Z,74.30
2018-02-18T17:04:04.431Z,74.50
2018-02-18T17:06:31.856Z,74.50
2018-02-18T17:09:00.050Z,75.10
2018-02-18T17:11:28.269Z,75.10
2018-02-18T17:13:55.747Z,75.10
2018-02-18T17:16:23.172Z,75.40
2018-02-18T17:18:50.636Z,76.40
2018-02-18T17:21:18.109Z,75.70
2018-02-18T17:23:45.524Z,75.90
2018-02-18T17:26:13.048Z,76.10
2018-02-18T17:28:40.480Z,76.20
2018-02-18T17:31:07.911Z,76.50
2018-02-18T17:33:35.409Z,76.60
2018-02-18T17:36:02.842Z,76.80
2018-02-18T17:38:30.299Z,76.90
2018-02-18T17:40:57.909Z,77.10
2018-02-18T17:43:26.103Z,77.40
2018-02-18T17:45:53.524Z,77.30
2018-02-18T17:48:21.049Z,77.50
2018-02-18T17:50:48.482Z,78.60
2018-02-18T17:53:15.910Z,77.80
2018-02-18T17:55:44.123Z,78.10
2018-02-18T17:58:11.547Z,78.10
2018-02-18T18:00:39.761Z,78.30
2018-02-18T18:03:07.211Z,78.20
2018-02-18T18:05:34.719Z,78.30
2018-02-18T18:08:02.141Z,78.40
2018-02-18T18:10:29.582Z,78.60
2018-02-18T18:12:57.012Z,78.80
2018-02-18T18:15:25.232Z,79.00
2018-02-18T18:17:52.695Z,79.00
2018-02-18T18:20:20.109Z,79.10
2018-02-18T18:22:47.598Z,79.00
2018-02-18T18:25:15.041Z,79.20
2018-02-18T18:27:42.469Z,79.30
2018-02-18T18:30:10.689Z,79.70
2018-02-18T18:32:38.244Z,79.70
2018-02-18T18:35:05.701Z,79.80
2018-02-18T18:37:33.132Z,80.10
2018-02-18T18:40:00.573Z,80.30
2018-02-18T18:42:28.786Z,80.50
2018-02-18T18:44:56.236Z,80.50
2018-02-18T18:47:23.960Z,80.70
2018-02-18T18:49:52.160Z,80.80
2018-02-18T18:52:19.581Z,80.70
2018-02-18T18:54:47.033Z,80.80
2018-02-18T18:57:14.461Z,80.90
2018-02-18T18:59:41.930Z,80.80
2018-02-18T19:02:09.388Z,80.90
2018-02-18T19:04:36.828Z,80.90
2018-02-18T19:07:04.273Z,81.00
2018-02-18T19:09:31.800Z,81.10
2018-02-18T19:12:00.031Z,81.10
2018-02-18T19:14:27.449Z,81.10
2018-02-18T19:16:54.932Z,81.10
2018-02-18T19:19:22.385Z,81.30
2018-02-18T19:21:49.812Z,81.30
2018-02-18T19:24:17.296Z,81.50
2018-02-18T19:26:44.725Z,81.60
2018-02-18T19:29:12.170Z,81.70
2018-02-18T19:31:39.599Z,81.80
2018-02-18T19:34:07.020Z,82.60
2018-02-18T19:36:34.464Z,82.00
2018-02-18T19:39:01.965Z,81.90
2018-02-18T19:41:29.347Z,82.00
2018-02-18T19:43:57.569Z,82.40
2018-02-18T19:46:25.030Z,82.10
2018-02-18T19:48:52.468Z,82.20
2018-02-18T19:51:19.961Z,82.30
2018-02-18T19:53:47.397Z,82.40
2018-02-18T19:56:14.877Z,82.50
2018-02-18T19:58:42.317Z,82.50
2018-02-18T20:01:09.773Z,82.60
2018-02-18T20:03:37.224Z,82.70
2018-02-18T20:06:04.684Z,82.70
2018-02-18T20:08:32.152Z,82.80
2018-02-18T20:10:59.602Z,83.00
2018-02-18T20:13:27.021Z,83.30
2018-02-18T20:15:55.224Z,83.70
2018-02-18T20:18:22.692Z,83.60
2018-02-18T20:20:50.138Z,83.80
2018-02-18T20:23:17.612Z,83.80
2018-02-18T20:25:45.058Z,83.90
2018-02-18T20:28:12.557Z,83.80
2018-02-18T20:30:40.087Z,83.80
2018-02-18T20:33:07.528Z,83.90
2018-02-18T20:35:35.009Z,84.00
2018-02-18T20:38:02.453Z,84.00
2018-02-18T20:40:29.879Z,84.80
2018-02-18T20:42:57.305Z,84.20
2018-02-18T20:45:24.749Z,84.30
2018-02-18T20:47:52.181Z,84.40
2018-02-18T20:50:19.622Z,84.50
2018-02-18T20:52:47.085Z,84.60
2018-02-18T20:55:14.641Z,84.90
2018-02-18T20:57:42.105Z,85.00
2018-02-18T21:00:09.549Z,84.80
2018-02-18T21:02:37.049Z,84.80
2018-02-18T21:05:05.249Z,85.00
2018-02-18T21:07:33.464Z,84.70
2018-02-18T21:10:00.929Z,84.70
2018-02-18T21:12:28.382Z,84.70
2018-02-18T21:14:55.792Z,84.90
2018-02-18T21:17:24.012Z,84.80
2018-02-18T21:19:51.512Z,84.90
2018-02-18T21:22:19.752Z,84.80
2018-02-18T21:24:47.179Z,84.90
2018-02-18T21:27:14.700Z,84.80
2018-02-18T21:29:42.141Z,84.80
2018-02-18T21:32:09.599Z,84.70
2018-02-18T21:34:37.028Z,84.80
2018-02-18T21:37:04.474Z,84.90
2018-02-18T21:39:31.952Z,85.00
2018-02-18T21:41:59.380Z,84.80
2018-02-18T21:44:26.897Z,84.70
2018-02-18T21:46:54.352Z,84.70
2018-02-18T21:49:21.913Z,84.60
2018-02-18T21:51:49.336Z,84.70
2018-02-18T21:54:16.788Z,84.80
2018-02-18T21:56:44.201Z,84.80
2018-02-18T21:59:12.415Z,84.90
2018-02-18T22:01:39.875Z,84.90
2018-02-18T22:04:07.345Z,84.90
2018-02-18T22:06:35.018Z,85.00
2018-02-18T22:09:02.463Z,84.90
2018-02-18T22:11:29.892Z,85.00
2018-02-18T22:13:58.104Z,85.20
2018-02-18T22:16:25.613Z,85.10
2018-02-18T22:18:53.814Z,85.70
2018-02-18T22:21:21.402Z,85.20
2018-02-18T22:23:48.864Z,85.20
2018-02-18T22:26:16.313Z,85.30
2018-02-18T22:28:43.791Z,85.20
2018-02-18T22:31:11.237Z,85.20
2018-02-18T22:33:38.666Z,85.20
2018-02-18T22:36:06.149Z,85.20
2018-02-18T22:38:33.589Z,85.30
2018-02-18T22:41:01.057Z,85.30
2018-02-18T22:43:28.520Z,85.30
2018-02-18T22:45:55.949Z,85.30
2018-02-18T22:48:23.378Z,85.30
2018-02-18T22:50:50.815Z,85.30
2018-02-18T22:53:18.320Z,85.40
2018-02-18T22:55:45.757Z,85.60
2018-02-18T22:58:13.980Z,85.90
2018-02-18T23:00:41.440Z,85.90
2018-02-18T23:03:08.885Z,86.10
2018-02-18T23:05:41.960Z,86.20
2018-02-18T23:08:09.445Z,86.30
2018-02-18T23:10:36.898Z,86.30
2018-02-18T23:13:04.332Z,86.10
2018-02-18T23:15:31.771Z,85.90
2018-02-18T23:17:59.967Z,85.80
2018-02-18T23:20:39.336Z,85.80
2018-02-18T23:23:06.770Z,85.90
2018-02-18T23:25:34.256Z,85.90
2018-02-18T23:28:01.677Z,85.80
2018-02-18T23:30:29.106Z,85.90
2018-02-18T23:32:57.349Z,85.80
2018-02-18T23:35:24.773Z,85.90
2018-02-18T23:37:52.222Z,85.80
2018-02-18T23:40:19.692Z,85.90
2018-02-18T23:42:47.134Z,85.90
2018-02-18T23:45:14.616Z,86.00
2018-02-18T23:47:42.068Z,85.90
2018-02-18T23:50:09.504Z,86.10
2018-02-18T23:52:36.949Z,86.10
2018-02-18T23:55:05.147Z,86.00
2018-02-18T23:57:32.608Z,86.00
